New Sharon, Iowa
Current Conditions -  °F | °C
As of 8:55 AM on Monday 24 Nov 2014 (Local Time) from KPEA Reporting Station
Overcast Overcast  
Wind Chill: 14°   Ceiling: 2000
Heat Index: 27°   Visibility: 10mi
Dew Point: 21°   Wind: 18mph
Humidity: 79%   Direction: 300°WNW
Pressure: 29.54"   Gusts: 29mph
Location:  41.47°N, 92.65°W
Report Text: KPEA 241455Z AUTO 30016G25KT 10SM SCT003 SCT008 OVC020 M03/M06 A2954 RMK AO2 T10291060
Loading
Personal Weather Stations






























Interactive Weather Map New forecast layout! Learn more

10-Day Weather Forecast

Advertisements
Track Severe Weather on mobile